createdAt,value
2018-04-24T00:01:00.619Z,9.70
2018-04-24T00:03:28.305Z,9.70
2018-04-24T00:05:55.785Z,9.70
2018-04-24T00:08:24.000Z,9.70
2018-04-24T00:10:51.544Z,9.70
2018-04-24T00:13:18.993Z,9.70
2018-04-24T00:15:46.480Z,9.70
2018-04-24T00:18:13.996Z,9.60
2018-04-24T00:20:41.694Z,9.60
2018-04-24T00:23:09.178Z,9.60
2018-04-24T00:25:36.673Z,9.50
2018-04-24T00:28:04.912Z,9.40
2018-04-24T00:30:32.434Z,9.30
2018-04-24T00:32:59.887Z,9.30
2018-04-24T00:35:27.368Z,9.20
2018-04-24T00:37:54.887Z,9.10
2018-04-24T00:40:22.347Z,9.20
2018-04-24T00:42:50.627Z,9.00
2018-04-24T00:45:18.868Z,8.90
2018-04-24T00:47:46.432Z,8.90
2018-04-24T00:50:13.917Z,9.00
2018-04-24T00:52:42.186Z,9.00
2018-04-24T00:55:10.001Z,9.00
2018-04-24T00:57:37.475Z,9.00
2018-04-24T01:00:04.926Z,9.00
2018-04-24T01:02:32.426Z,9.00
2018-04-24T01:05:00.828Z,9.00
2018-04-24T01:07:29.083Z,9.00
2018-04-24T01:09:56.535Z,9.00
2018-04-24T01:12:24.014Z,9.00
2018-04-24T01:14:51.470Z,9.00
2018-04-24T01:17:18.948Z,9.00
2018-04-24T01:19:46.434Z,8.90
2018-04-24T01:22:13.936Z,8.80
2018-04-24T01:24:41.411Z,8.70
2018-04-24T01:27:08.864Z,8.70
2018-04-24T01:29:37.144Z,8.70
2018-04-24T01:32:05.461Z,8.70
2018-04-24T01:34:32.929Z,8.60
2018-04-24T01:37:00.397Z,8.60
2018-04-24T01:39:27.908Z,8.60
2018-04-24T01:41:56.132Z,8.60
2018-04-24T01:44:23.634Z,8.60
2018-04-24T01:46:51.104Z,8.60
2018-04-24T01:49:19.326Z,8.60
2018-04-24T01:51:46.787Z,8.60
2018-04-24T01:54:14.277Z,8.60
2018-04-24T01:56:42.533Z,8.60
2018-04-24T01:59:10.825Z,8.60
2018-04-24T02:01:38.537Z,8.60
2018-04-24T02:04:06.018Z,8.70
2018-04-24T02:06:33.525Z,8.60
2018-04-24T02:09:00.985Z,8.70
2018-04-24T02:11:29.231Z,8.60
2018-04-24T02:13:56.690Z,8.60
2018-04-24T02:16:24.192Z,8.70
2018-04-24T02:18:52.423Z,8.70
2018-04-24T02:21:19.913Z,8.60
2018-04-24T02:23:47.399Z,8.60
2018-04-24T02:26:14.866Z,8.60
2018-04-24T02:28:42.338Z,8.60
2018-04-24T02:31:09.813Z,8.60
2018-04-24T02:33:37.277Z,8.60
2018-04-24T02:36:04.756Z,8.60
2018-04-24T02:38:32.213Z,8.50
2018-04-24T02:40:59.737Z,8.50
2018-04-24T02:43:27.211Z,8.40
2018-04-24T02:45:54.664Z,8.40
2018-04-24T02:48:22.132Z,8.30
2018-04-24T02:50:50.062Z,8.30
2018-04-24T02:53:17.535Z,8.30
2018-04-24T02:55:45.017Z,8.30
2018-04-24T02:58:12.479Z,8.30
2018-04-24T03:00:39.932Z,8.20
2018-04-24T03:03:07.428Z,8.20
2018-04-24T03:05:35.645Z,8.20
2018-04-24T03:08:03.136Z,8.20
2018-04-24T03:10:30.639Z,8.30
2018-04-24T03:12:58.106Z,8.30
2018-04-24T03:15:25.563Z,8.30
2018-04-24T03:17:53.039Z,8.20
2018-04-24T03:20:20.500Z,8.20
2018-04-24T03:22:47.969Z,8.20
2018-04-24T03:25:15.427Z,8.30
2018-04-24T03:27:42.896Z,8.20
2018-04-24T03:30:10.378Z,8.20
2018-04-24T03:32:37.890Z,8.30
2018-04-24T03:35:05.352Z,8.30
2018-04-24T03:37:32.832Z,8.30
2018-04-24T03:40:00.285Z,8.30
2018-04-24T03:42:27.770Z,8.30
2018-04-24T03:44:55.228Z,8.30
2018-04-24T03:47:22.705Z,8.30
2018-04-24T03:49:50.948Z,8.30
2018-04-24T03:52:18.473Z,8.30
2018-04-24T03:54:45.943Z,8.30
2018-04-24T03:57:13.494Z,8.30
2018-04-24T03:59:40.933Z,8.30
2018-04-24T04:02:08.406Z,8.30
2018-04-24T04:04:36.119Z,8.30
2018-04-24T04:07:03.634Z,8.30
2018-04-24T04:09:31.096Z,8.40
2018-04-24T04:11:58.573Z,8.40
2018-04-24T04:14:26.063Z,8.40
2018-04-24T04:16:54.294Z,8.40
2018-04-24T04:19:33.712Z,8.40
2018-04-24T04:22:13.136Z,8.40
2018-04-24T04:24:46.374Z,8.40
2018-04-24T04:27:14.702Z,8.40
2018-04-24T04:29:42.936Z,8.40
2018-04-24T04:32:11.323Z,8.40
2018-04-24T04:34:38.872Z,8.40
2018-04-24T04:37:06.362Z,8.50
2018-04-24T04:39:33.836Z,8.50
2018-04-24T04:42:02.084Z,8.50
2018-04-24T04:44:29.545Z,8.50
2018-04-24T04:46:57.211Z,8.50
2018-04-24T04:49:24.729Z,8.50
2018-04-24T04:51:52.233Z,8.60
2018-04-24T04:54:19.680Z,8.60
2018-04-24T04:56:47.165Z,8.60
2018-04-24T04:59:15.385Z,8.70
2018-04-24T05:01:42.900Z,8.70
2018-04-24T05:04:11.214Z,8.80
2018-04-24T05:06:38.703Z,8.80
2018-04-24T05:09:06.192Z,8.90
2018-04-24T05:11:34.448Z,9.00
2018-04-24T05:14:01.931Z,9.00
2018-04-24T05:16:30.176Z,9.20
2018-04-24T05:18:57.683Z,9.20
2018-04-24T05:21:25.156Z,9.20
2018-04-24T05:23:52.629Z,9.30
2018-04-24T05:26:20.089Z,9.40
2018-04-24T05:28:47.548Z,9.50
2018-04-24T05:31:15.051Z,9.60
2018-04-24T05:33:42.521Z,9.80
2018-04-24T05:36:10.752Z,10.30
2018-04-24T05:38:38.234Z,10.30
2018-04-24T05:41:05.718Z,10.60
2018-04-24T05:43:33.989Z,11.10
2018-04-24T05:46:02.218Z,11.50
2018-04-24T05:48:29.726Z,11.50
2018-04-24T05:50:57.957Z,11.80
2018-04-24T05:53:25.473Z,11.70
2018-04-24T05:55:53.741Z,12.00
2018-04-24T05:58:21.215Z,12.00
2018-04-24T06:00:49.469Z,12.20
2018-04-24T06:03:17.731Z,12.40
2018-04-24T06:05:45.208Z,12.40
2018-04-24T06:08:13.453Z,12.40
2018-04-24T06:10:40.926Z,12.40
2018-04-24T06:13:08.396Z,12.60
2018-04-24T06:15:35.860Z,12.90
2018-04-24T06:18:04.110Z,12.50
2018-04-24T06:20:31.585Z,12.50
2018-04-24T06:22:59.832Z,12.90
2018-04-24T06:25:27.308Z,12.90
2018-04-24T06:27:54.789Z,12.70
2018-04-24T06:30:23.052Z,12.60
2018-04-24T06:32:50.588Z,12.60
2018-04-24T06:35:18.077Z,12.50
2018-04-24T06:37:45.600Z,12.70
2018-04-24T06:40:13.108Z,13.00
2018-04-24T06:42:41.375Z,13.50
2018-04-24T06:45:08.908Z,13.50
2018-04-24T06:47:36.428Z,13.80
2018-04-24T06:50:03.905Z,14.30
2018-04-24T06:52:31.429Z,15.30
2018-04-24T06:54:59.940Z,16.50
2018-04-24T06:57:27.337Z,16.50
2018-04-24T06:59:54.876Z,16.40
2018-04-24T07:02:22.355Z,16.40
2018-04-24T07:04:49.860Z,15.90
2018-04-24T07:07:17.399Z,15.70
2018-04-24T07:09:45.784Z,15.90
2018-04-24T07:12:14.443Z,15.70
2018-04-24T07:14:41.907Z,15.70
2018-04-24T07:17:09.482Z,16.30
2018-04-24T07:19:37.726Z,15.90
2018-04-24T07:22:05.205Z,15.90
2018-04-24T07:24:33.457Z,15.80
2018-04-24T07:27:00.951Z,15.70
2018-04-24T07:29:28.448Z,16.10
2018-04-24T07:31:55.916Z,15.90
2018-04-24T07:34:23.406Z,15.90
2018-04-24T07:36:50.863Z,16.00
2018-04-24T07:39:19.726Z,16.10
2018-04-24T07:41:47.717Z,15.80
2018-04-24T07:44:16.386Z,15.50
2018-04-24T07:46:44.030Z,15.50
2018-04-24T07:49:11.530Z,15.40
2018-04-24T07:51:38.990Z,15.30
2018-04-24T07:54:06.471Z,15.20
2018-04-24T07:56:34.698Z,14.90
2018-04-24T07:59:02.169Z,14.90
2018-04-24T08:01:29.949Z,14.50
2018-04-24T08:03:58.216Z,14.80
2018-04-24T08:06:25.726Z,14.80
2018-04-24T08:08:53.191Z,15.00
2018-04-24T08:11:20.684Z,15.10
2018-04-24T08:13:48.164Z,14.70
2018-04-24T08:16:15.661Z,14.50
2018-04-24T08:18:43.966Z,14.40
2018-04-24T08:21:11.444Z,14.40
2018-04-24T08:23:39.088Z,14.40
2018-04-24T08:26:06.610Z,14.30
2018-04-24T08:28:34.964Z,14.00
2018-04-24T08:31:02.442Z,14.00
2018-04-24T08:33:30.910Z,14.10
2018-04-24T08:35:58.558Z,14.10
2018-04-24T08:38:26.132Z,14.20
2018-04-24T08:40:54.524Z,14.10
2018-04-24T08:43:22.047Z,14.10
2018-04-24T08:45:49.745Z,14.20
2018-04-24T08:48:17.311Z,14.10
2018-04-24T08:50:45.560Z,14.30
2018-04-24T08:53:13.206Z,14.20
2018-04-24T08:55:40.946Z,14.40
2018-04-24T08:58:08.801Z,14.40
2018-04-24T09:00:37.246Z,14.30
2018-04-24T09:03:05.120Z,14.10
2018-04-24T09:05:32.739Z,13.80
2018-04-24T09:08:00.298Z,13.80
2018-04-24T09:10:27.816Z,13.80
2018-04-24T09:12:55.472Z,13.80
2018-04-24T09:15:23.082Z,13.90
2018-04-24T09:17:50.561Z,14.10
2018-04-24T09:20:18.502Z,14.20
2018-04-24T09:22:45.992Z,14.70
2018-04-24T09:25:13.482Z,15.20
2018-04-24T09:27:40.953Z,15.70
2018-04-24T09:30:09.201Z,15.80
2018-04-24T09:32:36.730Z,15.80
2018-04-24T09:35:04.221Z,15.40
2018-04-24T09:37:31.709Z,15.20
2018-04-24T09:40:00.023Z,15.30
2018-04-24T09:42:27.524Z,15.20
2018-04-24T09:44:54.992Z,15.40
2018-04-24T09:47:23.436Z,15.10
2018-04-24T09:49:51.303Z,15.20
2018-04-24T09:52:18.826Z,15.10
2018-04-24T09:54:46.402Z,15.40
2018-04-24T09:57:13.877Z,15.80
2018-04-24T09:59:41.339Z,16.60
2018-04-24T10:02:08.922Z,17.50
2018-04-24T10:04:36.302Z,18.80
2018-04-24T10:07:04.924Z,19.00
2018-04-24T10:09:32.646Z,19.30
2018-04-24T10:12:00.831Z,19.60
2018-04-24T10:14:29.174Z,19.70
2018-04-24T10:16:56.640Z,19.70
2018-04-24T10:19:24.133Z,19.80
2018-04-24T10:21:52.705Z,20.20
2018-04-24T10:24:21.292Z,19.40
2018-04-24T10:26:48.781Z,19.40
2018-04-24T10:29:16.264Z,19.40
2018-04-24T10:31:43.758Z,19.40
2018-04-24T10:34:11.296Z,19.30
2018-04-24T10:36:38.771Z,19.40
2018-04-24T10:39:06.237Z,20.20
2018-04-24T10:41:33.700Z,19.70
2018-04-24T10:44:01.212Z,19.10
2018-04-24T10:46:28.725Z,19.50
2018-04-24T10:48:56.187Z,19.60
2018-04-24T10:51:24.437Z,20.50
2018-04-24T10:53:51.980Z,20.50
2018-04-24T10:56:19.476Z,19.80
2018-04-24T10:58:46.939Z,20.20
2018-04-24T11:01:14.457Z,19.90
2018-04-24T11:03:42.062Z,20.10
2018-04-24T11:06:09.635Z,20.80
2018-04-24T11:08:37.872Z,20.70
2018-04-24T11:11:05.350Z,20.70
2018-04-24T11:13:32.840Z,20.80
2018-04-24T11:21:42.083Z,21.70
2018-04-24T11:24:12.782Z,22.40
2018-04-24T11:26:40.631Z,22.60
2018-04-24T11:29:08.105Z,22.10
2018-04-24T11:31:36.416Z,23.20
2018-04-24T11:34:06.108Z,23.20
2018-04-24T11:36:33.656Z,22.00
2018-04-24T11:39:01.857Z,21.90
2018-04-24T11:41:29.361Z,21.90
2018-04-24T11:46:33.501Z,22.40
2018-04-24T11:49:03.584Z,22.30
2018-04-24T11:57:14.375Z,22.20
2018-04-24T11:59:50.062Z,21.10
2018-04-24T12:02:25.507Z,21.10
2018-04-24T12:04:59.027Z,21.50
2018-04-24T12:07:37.442Z,21.50
2018-04-24T12:10:05.724Z,21.40
2018-04-24T12:12:37.206Z,21.90
2018-04-24T12:15:12.249Z,21.50
2018-04-24T12:17:50.540Z,20.40
2018-04-24T12:20:23.400Z,20.40
2018-04-24T12:22:54.715Z,20.20
2018-04-24T12:25:22.177Z,20.20
2018-04-24T12:27:50.360Z,19.80
2018-04-24T12:30:19.290Z,20.00
2018-04-24T12:32:46.829Z,20.00
2018-04-24T12:35:15.070Z,19.20
2018-04-24T12:37:42.565Z,19.10
2018-04-24T12:40:10.810Z,19.40
2018-04-24T12:42:38.282Z,19.40
2018-04-24T12:45:05.855Z,19.50
2018-04-24T12:47:33.409Z,19.30
2018-04-24T12:50:01.683Z,19.70
2018-04-24T12:52:29.144Z,19.70
2018-04-24T12:54:56.829Z,19.60
2018-04-24T12:57:24.337Z,20.00
2018-04-24T12:59:51.885Z,19.70
2018-04-24T13:02:19.340Z,20.10
2018-04-24T13:04:47.771Z,20.30
2018-04-24T13:07:15.163Z,20.20
2018-04-24T13:09:42.654Z,19.70
2018-04-24T13:12:10.154Z,19.20
2018-04-24T13:14:38.380Z,19.20
2018-04-24T13:17:05.844Z,19.20
2018-04-24T13:19:33.343Z,19.50
2018-04-24T13:22:01.613Z,19.80
2018-04-24T13:24:29.109Z,19.70
2018-04-24T13:26:56.608Z,19.90
2018-04-24T13:29:24.064Z,19.60
2018-04-24T13:31:51.586Z,19.70
2018-04-24T13:34:19.057Z,19.60
2018-04-24T13:36:46.540Z,19.30
2018-04-24T13:39:14.114Z,19.30
2018-04-24T13:41:41.610Z,19.00
2018-04-24T13:44:09.298Z,19.30
2018-04-24T13:46:36.787Z,19.10
2018-04-24T13:49:04.282Z,19.60
2018-04-24T13:51:32.529Z,19.70
2018-04-24T13:54:00.010Z,19.80
2018-04-24T13:56:28.260Z,19.90
2018-04-24T13:58:55.739Z,19.90
2018-04-24T14:01:24.009Z,19.80
2018-04-24T14:03:51.485Z,19.70
2018-04-24T14:06:19.795Z,19.30
2018-04-24T14:08:48.088Z,19.70
2018-04-24T14:11:15.587Z,19.70
2018-04-24T14:13:43.081Z,19.90
2018-04-24T14:16:10.581Z,19.50
2018-04-24T14:18:38.066Z,19.50
2018-04-24T14:21:05.533Z,19.60
2018-04-24T14:23:33.117Z,19.60
2018-04-24T14:26:01.361Z,19.50
2018-04-24T14:28:28.855Z,19.50
2018-04-24T14:30:56.321Z,19.70
2018-04-24T14:33:23.837Z,19.40
2018-04-24T14:35:51.322Z,19.50
2018-04-24T14:38:19.588Z,19.20
2018-04-24T14:40:47.884Z,18.70
2018-04-24T14:43:16.873Z,18.80
2018-04-24T14:45:45.315Z,18.90
2018-04-24T14:48:12.805Z,18.90
2018-04-24T14:50:41.230Z,19.30
2018-04-24T14:53:10.866Z,19.30
2018-04-24T14:55:39.148Z,19.10
2018-04-24T14:58:07.525Z,19.10
2018-04-24T15:00:34.999Z,19.00
2018-04-24T15:03:02.525Z,19.10
2018-04-24T15:05:30.022Z,19.00
2018-04-24T15:07:57.557Z,18.90
2018-04-24T15:10:25.027Z,18.90
2018-04-24T15:12:53.587Z,19.00
2018-04-24T15:15:21.207Z,18.80
2018-04-24T15:17:48.708Z,18.90
2018-04-24T15:20:16.182Z,19.10
2018-04-24T15:22:43.729Z,19.30
2018-04-24T15:25:11.341Z,19.10
2018-04-24T15:27:39.568Z,19.10
2018-04-24T15:30:07.073Z,19.00
2018-04-24T15:32:35.318Z,19.20
2018-04-24T15:35:02.870Z,19.30
2018-04-24T15:37:31.245Z,19.20
2018-04-24T15:39:58.765Z,18.90
2018-04-24T15:42:26.800Z,18.70
2018-04-24T15:44:54.282Z,18.60
2018-04-24T15:47:24.849Z,18.70
2018-04-24T15:49:52.578Z,18.70
2018-04-24T15:52:20.807Z,18.70
2018-04-24T15:54:48.293Z,18.70
2018-04-24T15:57:15.799Z,18.80
2018-04-24T15:59:43.270Z,18.80
2018-04-24T16:02:10.744Z,18.70
2018-04-24T16:04:38.218Z,18.70
2018-04-24T16:07:05.703Z,18.50
2018-04-24T16:09:33.970Z,18.60
2018-04-24T16:12:02.205Z,18.80
2018-04-24T16:14:29.689Z,18.80
2018-04-24T16:16:58.162Z,18.60
2018-04-24T16:19:25.691Z,18.40
2018-04-24T16:21:53.185Z,18.40
2018-04-24T16:24:20.649Z,18.30
2018-04-24T16:26:48.135Z,18.30
2018-04-24T16:29:16.374Z,18.30
2018-04-24T16:31:43.850Z,18.30
2018-04-24T16:34:11.335Z,18.10
2018-04-24T16:36:39.570Z,18.50
2018-04-24T16:39:07.041Z,18.50
2018-04-24T16:41:34.641Z,18.40
2018-04-24T16:44:02.125Z,18.30
2018-04-24T16:46:29.624Z,18.30
2018-04-24T16:48:57.126Z,18.30
2018-04-24T16:51:24.732Z,18.10
2018-04-24T16:53:52.235Z,17.90
2018-04-24T16:56:20.484Z,17.90
2018-04-24T16:58:48.116Z,17.90
2018-04-24T17:01:15.615Z,17.70
2018-04-24T17:03:43.109Z,17.50
2018-04-24T17:06:10.661Z,17.50
2018-04-24T17:08:38.074Z,17.40
2018-04-24T17:11:05.549Z,17.60
2018-04-24T17:13:33.037Z,17.40
2018-04-24T17:16:00.650Z,17.40
2018-04-24T17:18:28.183Z,17.30
2018-04-24T17:20:55.737Z,17.30
2018-04-24T17:23:23.248Z,17.20
2018-04-24T17:25:50.789Z,17.30
2018-04-24T17:28:18.277Z,17.20
2018-04-24T17:30:46.050Z,17.20
2018-04-24T17:33:13.674Z,17.20
2018-04-24T17:35:41.198Z,17.10
2018-04-24T17:38:08.843Z,17.00
2018-04-24T17:40:36.324Z,17.10
2018-04-24T17:43:03.804Z,17.10
2018-04-24T17:45:31.295Z,17.00
2018-04-24T17:47:59.931Z,16.70
2018-04-24T17:50:27.523Z,16.60
2018-04-24T17:52:55.097Z,16.60
2018-04-24T17:55:22.634Z,16.50
2018-04-24T17:57:50.141Z,16.40
2018-04-24T18:00:18.851Z,16.40
2018-04-24T18:02:46.337Z,16.40
2018-04-24T18:05:13.828Z,16.30
2018-04-24T18:07:42.084Z,16.30
2018-04-24T18:10:10.462Z,16.30
2018-04-24T18:12:38.013Z,16.30
2018-04-24T18:15:05.545Z,16.20
2018-04-24T18:17:33.133Z,16.20
2018-04-24T18:20:01.066Z,16.10
2018-04-24T18:22:28.907Z,16.20
2018-04-24T18:24:56.421Z,16.10
2018-04-24T18:27:23.944Z,16.00
2018-04-24T18:29:52.177Z,15.90
2018-04-24T18:32:19.669Z,15.90
2018-04-24T18:34:47.157Z,15.80
2018-04-24T18:37:14.665Z,15.80
2018-04-24T18:39:42.169Z,15.70
2018-04-24T18:42:09.874Z,15.70
2018-04-24T18:44:37.469Z,15.60
2018-04-24T18:47:05.717Z,15.60
2018-04-24T18:49:33.200Z,15.60
2018-04-24T18:52:01.500Z,15.50
2018-04-24T18:54:29.959Z,15.50
2018-04-24T18:56:58.210Z,15.50
2018-04-24T18:59:25.907Z,15.50
2018-04-24T19:01:53.428Z,15.50
2018-04-24T19:04:20.918Z,15.50
2018-04-24T19:06:49.178Z,15.40
2018-04-24T19:09:16.720Z,15.40
2018-04-24T19:11:44.194Z,15.40
2018-04-24T19:14:17.314Z,15.40
2018-04-24T19:16:45.563Z,15.40
2018-04-24T19:19:18.823Z,15.40
2018-04-24T19:21:46.366Z,15.40
2018-04-24T19:24:19.570Z,15.40
2018-04-24T19:26:47.055Z,15.40
2018-04-24T19:29:14.583Z,15.40
2018-04-24T19:31:47.898Z,15.30
2018-04-24T19:34:15.405Z,15.30
2018-04-24T19:36:43.664Z,15.40
2018-04-24T19:39:16.830Z,15.40
2018-04-24T19:41:54.072Z,15.40
2018-04-24T19:44:22.302Z,15.50
2018-04-24T19:46:49.815Z,15.50
2018-04-24T19:49:23.143Z,15.50
2018-04-24T19:51:50.614Z,15.50
2018-04-24T19:54:18.192Z,15.60
2018-04-24T19:56:45.730Z,15.60
2018-04-24T19:59:13.649Z,15.60
2018-04-24T20:01:41.993Z,15.60
2018-04-24T20:04:09.535Z,15.60
2018-04-24T20:06:37.250Z,15.60
2018-04-24T20:09:06.333Z,15.60
2018-04-24T20:11:33.829Z,15.60
2018-04-24T20:14:01.493Z,15.60
2018-04-24T20:16:29.082Z,15.60
2018-04-24T20:18:56.587Z,15.60
2018-04-24T20:21:24.327Z,15.60
2018-04-24T20:23:51.838Z,15.60
2018-04-24T20:26:19.439Z,15.60
2018-04-24T20:28:47.930Z,15.70
2018-04-24T20:31:15.507Z,15.70
2018-04-24T20:33:43.027Z,15.60
2018-04-24T20:36:10.517Z,15.60
2018-04-24T20:38:38.069Z,15.60
2018-04-24T20:41:05.561Z,15.50
2018-04-24T20:43:33.930Z,15.40
2018-04-24T20:46:02.745Z,15.40
2018-04-24T20:48:30.626Z,15.30
2018-04-24T20:50:58.093Z,15.30
2018-04-24T20:53:25.688Z,15.20
2018-04-24T20:55:54.767Z,15.20
2018-04-24T20:58:22.382Z,15.20
2018-04-24T21:00:49.941Z,15.20
2018-04-24T21:03:18.384Z,15.20
2018-04-24T21:05:45.905Z,15.20
2018-04-24T21:08:13.396Z,15.20
2018-04-24T21:10:40.885Z,15.30
2018-04-24T21:13:08.424Z,15.30
2018-04-24T21:15:36.649Z,15.30
2018-04-24T21:18:05.069Z,15.30
2018-04-24T21:20:32.564Z,15.30
2018-04-24T21:23:00.817Z,15.00
2018-04-24T21:25:28.287Z,15.00
2018-04-24T21:27:55.776Z,14.90
2018-04-24T21:30:23.261Z,14.90
2018-04-24T21:32:50.810Z,14.90
2018-04-24T21:35:18.344Z,14.90
2018-04-24T21:37:46.592Z,14.70
2018-04-24T21:40:14.080Z,14.70
2018-04-24T21:42:41.604Z,14.70
2018-04-24T21:45:09.070Z,14.70
2018-04-24T21:47:36.556Z,14.70
2018-04-24T21:50:04.809Z,14.70
2018-04-24T21:52:32.286Z,14.70
2018-04-24T21:54:59.765Z,14.70
2018-04-24T21:57:28.113Z,14.60
2018-04-24T21:59:55.580Z,14.60
2018-04-24T22:02:23.049Z,14.70
2018-04-24T22:04:50.558Z,14.60
2018-04-24T22:07:18.041Z,14.70
2018-04-24T22:09:45.514Z,14.70
2018-04-24T22:12:12.993Z,14.70
2018-04-24T22:14:40.476Z,14.60
2018-04-24T22:17:07.927Z,14.50
2018-04-24T22:19:35.438Z,14.50
2018-04-24T22:22:02.909Z,14.50
2018-04-24T22:24:31.165Z,14.50
2018-04-24T22:26:58.651Z,14.50
2018-04-24T22:29:26.097Z,14.50
2018-04-24T22:31:53.596Z,14.40
2018-04-24T22:34:21.169Z,14.40
2018-04-24T22:36:48.665Z,14.30
2018-04-24T22:39:16.163Z,14.30
2018-04-24T22:41:44.420Z,14.40
2018-04-24T22:44:12.649Z,14.50
2018-04-24T22:46:40.133Z,14.40
2018-04-24T22:49:07.609Z,14.50
2018-04-24T22:51:35.092Z,14.40
2018-04-24T22:54:02.584Z,14.40
2018-04-24T22:56:30.066Z,14.30
2018-04-24T22:58:57.529Z,14.30
2018-04-24T23:01:25.007Z,14.30
2018-04-24T23:03:52.480Z,14.30
2018-04-24T23:06:19.962Z,14.30
2018-04-24T23:08:47.445Z,14.40
2018-04-24T23:11:26.742Z,14.40
2018-04-24T23:14:06.161Z,14.30
2018-04-24T23:16:46.189Z,14.20
2018-04-24T23:19:25.615Z,14.20
2018-04-24T23:21:52.623Z,14.10
2018-04-24T23:24:20.105Z,14.00
2018-04-24T23:26:47.689Z,14.00
2018-04-24T23:29:15.183Z,13.90
2018-04-24T23:31:43.409Z,13.80
2018-04-24T23:34:10.878Z,13.80
2018-04-24T23:36:38.416Z,13.80
2018-04-24T23:39:05.896Z,13.70
2018-04-24T23:41:33.355Z,13.70
2018-04-24T23:44:01.614Z,13.70
2018-04-24T23:46:29.092Z,13.70
2018-04-24T23:48:56.584Z,13.70
2018-04-24T23:51:24.921Z,13.70
2018-04-24T23:53:52.392Z,13.70
2018-04-24T23:56:19.860Z,13.60
2018-04-24T23:58:47.308Z,13.60
